LOT2141 EPKK-LIRF
Flight info
| Callsign | LOT2141 |
|---|---|
| Flight time | 1h 43m |
| Altitude | 36000 |
| Route | BABKO L856 KOPAT DCT MAREG DCT RADLY DCT ROSKA DCT AGOMO DCT GAVRA DCT RITEB |
| Aircraft | B38M/M-SDE1FGHILORVWXY/HB1 |
Departure
| Time | 2026-05-01 08:51 |
|---|---|
| Airport | Kraków John Paul II International Airport (EPKK) |
Arrival
| Time | 2026-05-01 10:34 |
|---|---|
| Airport | Rome–Fiumicino Leonardo da Vinci International Airport (LIRF) |
| Time | Latitude | Longitude | Altitude | Speed | Heading |
|---|---|---|---|---|---|
| 2026-05-01 08:33 | 50.07476 | 19.80079 | 793 ft | 0 kts | 168° |
| 2026-05-01 08:47 | 50.07466 | 19.80082 | 793 ft | 2 kts | 168° |
| 2026-05-01 08:47 | 50.07449 | 19.80088 | 794 ft | 4 kts | 168° |
| 2026-05-01 08:47 | 50.07420 | 19.80112 | 794 ft | 5 kts | 124° |
| 2026-05-01 08:48 | 50.07423 | 19.80170 | 794 ft | 6 kts | 78° |
| 2026-05-01 08:48 | 50.07433 | 19.80246 | 794 ft | 8 kts | 78° |
| 2026-05-01 08:48 | 50.07446 | 19.80341 | 794 ft | 10 kts | 71° |
| 2026-05-01 08:48 | 50.07505 | 19.80394 | 794 ft | 11 kts | 18° |
| 2026-05-01 08:49 | 50.07583 | 19.80427 | 794 ft | 12 kts | 356° |
| 2026-05-01 08:49 | 50.07637 | 19.80408 | 794 ft | 8 kts | 347° |
| 2026-05-01 08:49 | 50.07700 | 19.80385 | 794 ft | 10 kts | 347° |
| 2026-05-01 08:49 | 50.07776 | 19.80360 | 794 ft | 12 kts | 348° |
| 2026-05-01 08:50 | 50.07864 | 19.80331 | 794 ft | 14 kts | 348° |
| 2026-05-01 08:50 | 50.07965 | 19.80298 | 793 ft | 16 kts | 348° |
| 2026-05-01 08:50 | 50.08012 | 19.80186 | 793 ft | 13 kts | 258° |
| 2026-05-01 08:50 | 50.07982 | 19.79967 | 793 ft | 46 kts | 258° |
| 2026-05-01 08:51 | 50.07860 | 19.79096 | 794 ft | 115 kts | 258° |
| 2026-05-01 08:51 | 50.07648 | 19.77580 | 816 ft | 166 kts | 257° |
| 2026-05-01 08:51 | 50.07409 | 19.75793 | 1534 ft | 167 kts | 256° |
| 2026-05-01 08:51 | 50.07155 | 19.74046 | 2397 ft | 165 kts | 258° |
| 2026-05-01 08:52 | 50.06901 | 19.72259 | 3209 ft | 177 kts | 260° |
| 2026-05-01 08:52 | 50.06581 | 19.70326 | 3753 ft | 199 kts | 251° |
| 2026-05-01 08:52 | 50.05614 | 19.68569 | 4160 ft | 238 kts | 212° |
| 2026-05-01 08:52 | 50.03922 | 19.67895 | 4816 ft | 253 kts | 183° |
| 2026-05-01 08:53 | 50.02141 | 19.67569 | 5724 ft | 268 kts | 199° |
| 2026-05-01 08:53 | 50.00375 | 19.66384 | 6437 ft | 284 kts | 204° |
| 2026-05-01 08:53 | 49.98506 | 19.65282 | 7344 ft | 291 kts | 199° |
| 2026-05-01 08:53 | 49.96574 | 19.64256 | 8218 ft | 299 kts | 198° |
| 2026-05-01 08:54 | 49.94582 | 19.63236 | 9141 ft | 304 kts | 197° |
| 2026-05-01 08:54 | 49.92540 | 19.62210 | 10010 ft | 312 kts | 196° |
| 2026-05-01 08:54 | 49.90447 | 19.61172 | 10775 ft | 321 kts | 196° |
| 2026-05-01 08:54 | 49.88255 | 19.60094 | 11207 ft | 341 kts | 196° |
| 2026-05-01 08:55 | 49.85960 | 19.58966 | 11772 ft | 354 kts | 196° |
| 2026-05-01 08:55 | 49.83591 | 19.57804 | 12522 ft | 359 kts | 196° |
| 2026-05-01 08:55 | 49.81196 | 19.56638 | 13322 ft | 364 kts | 196° |
| 2026-05-01 08:55 | 49.78754 | 19.55450 | 14070 ft | 370 kts | 196° |
| 2026-05-01 08:56 | 49.76288 | 19.54251 | 14747 ft | 374 kts | 196° |
| 2026-05-01 08:56 | 49.73819 | 19.53052 | 15420 ft | 378 kts | 196° |
| 2026-05-01 08:56 | 49.71285 | 19.51824 | 16091 ft | 383 kts | 195° |
| 2026-05-01 08:56 | 49.68723 | 19.50583 | 16763 ft | 387 kts | 195° |
| 2026-05-01 08:57 | 49.66142 | 19.49334 | 17421 ft | 391 kts | 195° |
| 2026-05-01 08:57 | 49.63533 | 19.48068 | 18076 ft | 394 kts | 196° |
| 2026-05-01 08:57 | 49.61052 | 19.46205 | 18670 ft | 400 kts | 216° |
| 2026-05-01 08:57 | 49.59015 | 19.43283 | 19175 ft | 403 kts | 229° |
| 2026-05-01 08:58 | 49.57095 | 19.40155 | 19597 ft | 409 kts | 227° |
| 2026-05-01 08:58 | 49.55115 | 19.36987 | 20132 ft | 412 kts | 227° |
| 2026-05-01 08:58 | 49.53123 | 19.33769 | 20646 ft | 416 kts | 227° |
| 2026-05-01 08:58 | 49.51126 | 19.30527 | 21133 ft | 420 kts | 227° |
| 2026-05-01 08:59 | 49.49104 | 19.27237 | 21568 ft | 424 kts | 227° |
| 2026-05-01 08:59 | 49.47063 | 19.23922 | 22076 ft | 428 kts | 227° |
| 2026-05-01 08:59 | 49.45031 | 19.20624 | 22544 ft | 432 kts | 227° |
| 2026-05-01 08:59 | 49.42956 | 19.17258 | 23014 ft | 436 kts | 227° |
| 2026-05-01 09:00 | 49.40861 | 19.13866 | 23541 ft | 439 kts | 227° |
| 2026-05-01 09:00 | 49.38744 | 19.10443 | 23964 ft | 444 kts | 226° |
| 2026-05-01 09:00 | 49.36610 | 19.06998 | 24307 ft | 447 kts | 227° |
| 2026-05-01 09:00 | 49.35190 | 19.04708 | 24366 ft | 445 kts | 227° |
| 2026-05-01 09:01 | 49.33061 | 19.01279 | 24431 ft | 445 kts | 227° |
| 2026-05-01 09:01 | 49.30925 | 18.97844 | 24915 ft | 444 kts | 227° |
| 2026-05-01 09:01 | 49.28789 | 18.94410 | 25324 ft | 448 kts | 226° |
| 2026-05-01 09:01 | 49.26623 | 18.90933 | 25765 ft | 450 kts | 226° |
| 2026-05-01 09:02 | 49.24453 | 18.87456 | 26161 ft | 453 kts | 226° |
| 2026-05-01 09:02 | 49.22271 | 18.83965 | 26579 ft | 455 kts | 226° |
| 2026-05-01 09:02 | 49.20074 | 18.80455 | 26991 ft | 458 kts | 226° |
| 2026-05-01 09:02 | 49.17863 | 18.76926 | 27387 ft | 460 kts | 226° |
| 2026-05-01 09:03 | 49.15672 | 18.73434 | 27784 ft | 462 kts | 226° |
| 2026-05-01 09:03 | 49.13434 | 18.69872 | 28161 ft | 465 kts | 226° |
| 2026-05-01 09:03 | 49.11193 | 18.66291 | 28530 ft | 468 kts | 229° |
| 2026-05-01 09:03 | 49.09156 | 18.62399 | 28886 ft | 469 kts | 235° |
| 2026-05-01 09:04 | 49.07147 | 18.58414 | 29231 ft | 473 kts | 232° |
| 2026-05-01 09:04 | 49.05090 | 18.54566 | 29549 ft | 475 kts | 232° |
| 2026-05-01 09:04 | 49.02997 | 18.50640 | 29907 ft | 478 kts | 232° |
| 2026-05-01 09:04 | 49.00904 | 18.46702 | 30256 ft | 480 kts | 232° |
| 2026-05-01 09:05 | 48.98797 | 18.42740 | 30590 ft | 482 kts | 232° |
| 2026-05-01 09:05 | 48.96684 | 18.38771 | 30870 ft | 484 kts | 232° |
| 2026-05-01 09:05 | 48.94549 | 18.34768 | 31112 ft | 486 kts | 232° |
| 2026-05-01 09:05 | 48.92417 | 18.30774 | 31429 ft | 488 kts | 232° |
| 2026-05-01 09:06 | 48.90287 | 18.26788 | 31679 ft | 490 kts | 232° |
| 2026-05-01 09:06 | 48.88133 | 18.22768 | 31990 ft | 492 kts | 231° |
| 2026-05-01 09:06 | 48.85967 | 18.18731 | 32251 ft | 494 kts | 232° |
| 2026-05-01 09:06 | 48.83789 | 18.14678 | 32511 ft | 496 kts | 232° |
| 2026-05-01 09:07 | 48.81627 | 18.10661 | 32776 ft | 498 kts | 231° |
| 2026-05-01 09:07 | 48.79430 | 18.06584 | 33046 ft | 500 kts | 231° |
| 2026-05-01 09:07 | 48.77225 | 18.02497 | 33315 ft | 501 kts | 231° |
| 2026-05-01 09:07 | 48.75010 | 17.98399 | 33570 ft | 503 kts | 231° |
| 2026-05-01 09:08 | 48.72786 | 17.94291 | 33880 ft | 504 kts | 231° |
| 2026-05-01 09:08 | 48.70550 | 17.90167 | 34154 ft | 506 kts | 231° |
| 2026-05-01 09:08 | 48.68314 | 17.86050 | 34420 ft | 507 kts | 231° |
| 2026-05-01 09:08 | 48.66066 | 17.81917 | 34658 ft | 508 kts | 231° |
| 2026-05-01 09:09 | 48.63813 | 17.77781 | 34925 ft | 508 kts | 231° |
| 2026-05-01 09:09 | 48.61589 | 17.73705 | 35197 ft | 508 kts | 231° |
| 2026-05-01 09:09 | 48.59337 | 17.69584 | 35470 ft | 508 kts | 231° |
| 2026-05-01 09:09 | 48.57083 | 17.65464 | 35746 ft | 507 kts | 231° |
| 2026-05-01 09:10 | 48.54831 | 17.61356 | 36053 ft | 506 kts | 231° |
| 2026-05-01 09:10 | 48.52590 | 17.57274 | 36336 ft | 505 kts | 231° |
| 2026-05-01 09:10 | 48.48135 | 17.49176 | 36392 ft | 503 kts | 231° |
| 2026-05-01 09:11 | 48.43671 | 17.41087 | 36395 ft | 502 kts | 231° |
| 2026-05-01 09:11 | 48.39192 | 17.32997 | 36392 ft | 502 kts | 231° |
| 2026-05-01 09:12 | 48.34713 | 17.24929 | 36395 ft | 502 kts | 231° |
| 2026-05-01 09:12 | 48.30229 | 17.16875 | 36393 ft | 502 kts | 231° |
| 2026-05-01 09:13 | 48.25737 | 17.08832 | 36399 ft | 502 kts | 231° |
| 2026-05-01 09:13 | 48.21273 | 17.00857 | 36398 ft | 502 kts | 231° |
| 2026-05-01 09:14 | 48.16466 | 16.93264 | 36385 ft | 502 kts | 215° |
| 2026-05-01 09:14 | 48.10640 | 16.87449 | 36408 ft | 504 kts | 216° |
| 2026-05-01 09:15 | 48.05328 | 16.80603 | 36420 ft | 505 kts | 219° |
| 2026-05-01 09:15 | 47.99777 | 16.74165 | 36426 ft | 505 kts | 217° |
| 2026-05-01 09:16 | 47.94242 | 16.67708 | 36420 ft | 505 kts | 218° |
| 2026-05-01 09:17 | 47.85986 | 16.58071 | 36411 ft | 505 kts | 218° |
| 2026-05-01 09:17 | 47.77678 | 16.48413 | 36410 ft | 505 kts | 218° |
| 2026-05-01 09:18 | 47.69364 | 16.38788 | 36408 ft | 505 kts | 218° |
| 2026-05-01 09:19 | 47.61102 | 16.29263 | 36410 ft | 505 kts | 217° |
| 2026-05-01 09:20 | 47.52819 | 16.19755 | 36396 ft | 506 kts | 218° |
| 2026-05-01 09:21 | 47.41659 | 16.07003 | 36390 ft | 506 kts | 217° |
| 2026-05-01 09:21 | 47.33288 | 15.97483 | 36386 ft | 507 kts | 217° |
| 2026-05-01 09:22 | 47.22144 | 15.84872 | 36388 ft | 507 kts | 217° |
| 2026-05-01 09:23 | 47.13776 | 15.75447 | 36388 ft | 507 kts | 217° |
| 2026-05-01 09:24 | 47.05364 | 15.66011 | 36396 ft | 507 kts | 217° |
| 2026-05-01 09:25 | 46.94138 | 15.53479 | 36398 ft | 507 kts | 217° |
| 2026-05-01 09:26 | 46.85757 | 15.44166 | 36393 ft | 506 kts | 217° |
| 2026-05-01 09:26 | 46.77321 | 15.34828 | 36396 ft | 506 kts | 217° |
| 2026-05-01 09:27 | 46.68903 | 15.25544 | 36387 ft | 506 kts | 217° |
| 2026-05-01 09:28 | 46.63444 | 15.19072 | 36380 ft | 505 kts | 229° |
| 2026-05-01 09:28 | 46.61383 | 15.14989 | 36417 ft | 500 kts | 240° |
| 2026-05-01 09:28 | 46.59490 | 15.10726 | 36381 ft | 504 kts | 237° |
| 2026-05-01 09:29 | 46.52805 | 14.99423 | 36382 ft | 504 kts | 234° |
| 2026-05-01 09:30 | 46.46324 | 14.87369 | 36384 ft | 504 kts | 233° |
| 2026-05-01 09:30 | 46.39751 | 14.75458 | 36387 ft | 504 kts | 233° |
| 2026-05-01 09:31 | 46.35353 | 14.67516 | 36394 ft | 505 kts | 233° |
| 2026-05-01 09:32 | 46.28792 | 14.55711 | 36427 ft | 505 kts | 233° |
| 2026-05-01 09:32 | 46.22155 | 14.43823 | 36410 ft | 504 kts | 233° |
| 2026-05-01 09:33 | 46.17800 | 14.36049 | 36409 ft | 504 kts | 232° |
| 2026-05-01 09:34 | 46.11168 | 14.24250 | 36393 ft | 504 kts | 232° |
| 2026-05-01 09:34 | 46.04565 | 14.12554 | 36376 ft | 503 kts | 232° |
| 2026-05-01 09:35 | 45.97933 | 14.00856 | 36370 ft | 502 kts | 232° |
| 2026-05-01 09:36 | 45.93514 | 13.93089 | 36375 ft | 503 kts | 232° |
| 2026-05-01 09:36 | 45.89074 | 13.85305 | 36389 ft | 503 kts | 232° |
| 2026-05-01 09:37 | 45.84632 | 13.77542 | 36373 ft | 503 kts | 232° |
| 2026-05-01 09:37 | 45.77990 | 13.65973 | 36377 ft | 503 kts | 232° |
| 2026-05-01 09:38 | 45.71301 | 13.54369 | 36373 ft | 504 kts | 232° |
| 2026-05-01 09:39 | 45.64606 | 13.42803 | 36371 ft | 503 kts | 232° |
| 2026-05-01 09:39 | 45.60144 | 13.35121 | 36371 ft | 503 kts | 232° |
| 2026-05-01 09:40 | 45.53460 | 13.23652 | 36372 ft | 503 kts | 232° |
| 2026-05-01 09:41 | 45.48979 | 13.15990 | 36377 ft | 502 kts | 232° |
| 2026-05-01 09:41 | 45.42296 | 13.04597 | 36385 ft | 488 kts | 232° |
| 2026-05-01 09:42 | 45.40181 | 13.01002 | 36383 ft | 472 kts | 232° |
| 2026-05-01 09:42 | 45.38092 | 12.97453 | 36390 ft | 463 kts | 232° |
| 2026-05-01 09:43 | 45.28750 | 12.85391 | 36355 ft | 454 kts | 190° |
| 2026-05-01 09:43 | 45.25652 | 12.84903 | 36413 ft | 448 kts | 176° |
| 2026-05-01 09:43 | 45.22522 | 12.84873 | 36391 ft | 453 kts | 177° |
| 2026-05-01 09:44 | 45.16262 | 12.83546 | 36402 ft | 459 kts | 194° |
| 2026-05-01 09:44 | 45.13176 | 12.82319 | 36392 ft | 460 kts | 191° |
| 2026-05-01 09:45 | 45.06911 | 12.81248 | 36406 ft | 455 kts | 180° |
| 2026-05-01 09:45 | 45.00732 | 12.79545 | 36371 ft | 452 kts | 207° |
| 2026-05-01 09:45 | 44.98103 | 12.77241 | 36422 ft | 451 kts | 216° |
| 2026-05-01 09:46 | 44.92739 | 12.72551 | 36383 ft | 454 kts | 204° |
| 2026-05-01 09:46 | 44.87075 | 12.68603 | 36387 ft | 454 kts | 211° |
| 2026-05-01 09:47 | 44.82517 | 12.64814 | 36399 ft | 454 kts | 210° |
| 2026-05-01 09:47 | 44.77081 | 12.60423 | 36393 ft | 453 kts | 210° |
| 2026-05-01 09:48 | 44.71600 | 12.56046 | 36394 ft | 452 kts | 210° |
| 2026-05-01 09:48 | 44.66112 | 12.51674 | 36395 ft | 452 kts | 210° |
| 2026-05-01 09:49 | 44.60672 | 12.47351 | 36398 ft | 452 kts | 210° |
| 2026-05-01 09:49 | 44.55202 | 12.43012 | 36397 ft | 451 kts | 210° |
| 2026-05-01 09:50 | 44.49730 | 12.38681 | 36396 ft | 451 kts | 210° |
| 2026-05-01 09:50 | 44.44265 | 12.34366 | 36396 ft | 451 kts | 210° |
| 2026-05-01 09:51 | 44.38800 | 12.30059 | 36398 ft | 450 kts | 210° |
| 2026-05-01 09:51 | 44.33331 | 12.25759 | 36398 ft | 450 kts | 210° |
| 2026-05-01 09:52 | 44.27899 | 12.21497 | 36400 ft | 450 kts | 210° |
| 2026-05-01 09:52 | 44.22434 | 12.17219 | 36375 ft | 450 kts | 210° |
| 2026-05-01 09:53 | 44.16973 | 12.12952 | 36374 ft | 450 kts | 210° |
| 2026-05-01 09:53 | 44.11510 | 12.08694 | 36374 ft | 450 kts | 210° |
| 2026-05-01 09:54 | 44.06031 | 12.04432 | 36375 ft | 450 kts | 211° |
| 2026-05-01 09:54 | 44.00553 | 12.00179 | 36376 ft | 451 kts | 211° |
| 2026-05-01 09:55 | 43.95069 | 11.95932 | 36373 ft | 452 kts | 211° |
| 2026-05-01 09:55 | 43.89609 | 11.91711 | 36367 ft | 452 kts | 211° |
| 2026-05-01 09:56 | 43.84099 | 11.87460 | 36365 ft | 453 kts | 211° |
| 2026-05-01 09:56 | 43.78423 | 11.83617 | 36315 ft | 455 kts | 195° |
| 2026-05-01 09:57 | 43.75312 | 11.83166 | 36331 ft | 447 kts | 170° |
| 2026-05-01 09:57 | 43.72307 | 11.84119 | 36387 ft | 442 kts | 157° |
| 2026-05-01 09:57 | 43.66412 | 11.86660 | 36356 ft | 453 kts | 165° |
| 2026-05-01 09:58 | 43.60152 | 11.87964 | 36348 ft | 454 kts | 166° |
| 2026-05-01 09:58 | 43.54017 | 11.89963 | 36356 ft | 453 kts | 163° |
| 2026-05-01 09:59 | 43.47869 | 11.91952 | 36338 ft | 454 kts | 164° |
| 2026-05-01 09:59 | 43.41701 | 11.93906 | 36343 ft | 455 kts | 164° |
| 2026-05-01 10:00 | 43.35569 | 11.95844 | 36324 ft | 454 kts | 164° |
| 2026-05-01 10:00 | 43.29395 | 11.97793 | 36331 ft | 455 kts | 164° |
| 2026-05-01 10:01 | 43.23229 | 11.99733 | 36326 ft | 454 kts | 165° |
| 2026-05-01 10:01 | 43.17061 | 12.01670 | 36328 ft | 454 kts | 165° |
| 2026-05-01 10:02 | 43.10938 | 12.03589 | 36319 ft | 454 kts | 165° |
| 2026-05-01 10:02 | 43.04788 | 12.05513 | 36312 ft | 453 kts | 165° |
| 2026-05-01 10:03 | 42.98640 | 12.07433 | 36306 ft | 453 kts | 166° |
| 2026-05-01 10:03 | 42.92487 | 12.09350 | 36298 ft | 453 kts | 166° |
| 2026-05-01 10:04 | 42.86348 | 12.11261 | 36283 ft | 452 kts | 166° |
| 2026-05-01 10:04 | 42.80190 | 12.13171 | 36303 ft | 453 kts | 166° |
| 2026-05-01 10:05 | 42.74048 | 12.15073 | 36277 ft | 451 kts | 166° |
| 2026-05-01 10:05 | 42.68151 | 12.17666 | 36238 ft | 445 kts | 146° |
| 2026-05-01 10:06 | 42.62920 | 12.22193 | 36237 ft | 447 kts | 149° |
| 2026-05-01 10:06 | 42.57489 | 12.26312 | 36242 ft | 447 kts | 148° |
| 2026-05-01 10:07 | 42.52109 | 12.30550 | 36228 ft | 446 kts | 148° |
| 2026-05-01 10:07 | 42.46744 | 12.34823 | 36230 ft | 447 kts | 148° |
| 2026-05-01 10:08 | 42.38696 | 12.41070 | 36224 ft | 447 kts | 155° |
| 2026-05-01 10:08 | 42.35713 | 12.42356 | 36210 ft | 444 kts | 174° |
| 2026-05-01 10:09 | 42.32698 | 12.42368 | 36227 ft | 437 kts | 192° |
| 2026-05-01 10:09 | 42.26716 | 12.40726 | 36227 ft | 441 kts | 192° |
| 2026-05-01 10:10 | 42.20648 | 12.39497 | 36226 ft | 440 kts | 193° |
| 2026-05-01 10:10 | 42.11578 | 12.37411 | 36218 ft | 439 kts | 193° |
| 2026-05-01 10:11 | 42.05561 | 12.35989 | 36216 ft | 440 kts | 194° |
| 2026-05-01 10:11 | 41.99511 | 12.34697 | 36206 ft | 443 kts | 187° |
| 2026-05-01 10:12 | 41.96464 | 12.34914 | 36177 ft | 446 kts | 166° |
| 2026-05-01 10:12 | 41.93586 | 12.36416 | 36250 ft | 445 kts | 154° |
| 2026-05-01 10:13 | 41.85225 | 12.41982 | 35619 ft | 447 kts | 140° |
| 2026-05-01 10:13 | 41.82970 | 12.44729 | 35012 ft | 448 kts | 134° |
| 2026-05-01 10:13 | 41.80750 | 12.47695 | 34394 ft | 452 kts | 134° |
| 2026-05-01 10:14 | 41.76267 | 12.53664 | 33128 ft | 456 kts | 136° |
| 2026-05-01 10:14 | 41.73849 | 12.56360 | 32561 ft | 455 kts | 147° |
| 2026-05-01 10:14 | 41.71086 | 12.58235 | 32031 ft | 450 kts | 165° |
| 2026-05-01 10:14 | 41.68046 | 12.59039 | 31459 ft | 444 kts | 180° |
| 2026-05-01 10:15 | 41.64975 | 12.59073 | 30868 ft | 439 kts | 189° |
| 2026-05-01 10:15 | 41.61987 | 12.58438 | 30329 ft | 430 kts | 202° |
| 2026-05-01 10:15 | 41.59251 | 12.56981 | 29694 ft | 419 kts | 216° |
| 2026-05-01 10:15 | 41.56909 | 12.54767 | 29004 ft | 408 kts | 230° |
| 2026-05-01 10:16 | 41.55093 | 12.51945 | 28317 ft | 397 kts | 244° |
| 2026-05-01 10:16 | 41.53890 | 12.48681 | 27610 ft | 388 kts | 258° |
| 2026-05-01 10:16 | 41.53541 | 12.41713 | 26198 ft | 375 kts | 286° |
| 2026-05-01 10:17 | 41.54410 | 12.38482 | 25703 ft | 364 kts | 301° |
| 2026-05-01 10:17 | 41.57759 | 12.33825 | 24939 ft | 342 kts | 330° |
| 2026-05-01 10:17 | 41.59936 | 12.32680 | 24666 ft | 333 kts | 342° |
| 2026-05-01 10:18 | 41.64333 | 12.31164 | 23634 ft | 322 kts | 349° |
| 2026-05-01 10:18 | 41.66548 | 12.31355 | 22991 ft | 326 kts | 15° |
| 2026-05-01 10:18 | 41.68530 | 12.32866 | 22381 ft | 330 kts | 32° |
| 2026-05-01 10:19 | 41.70325 | 12.34771 | 21755 ft | 327 kts | 32° |
| 2026-05-01 10:19 | 41.72096 | 12.36603 | 21148 ft | 324 kts | 32° |
| 2026-05-01 10:19 | 41.73706 | 12.38719 | 20526 ft | 331 kts | 51° |
| 2026-05-01 10:20 | 41.74431 | 12.44848 | 19283 ft | 354 kts | 98° |
| 2026-05-01 10:20 | 41.73595 | 12.47977 | 18641 ft | 361 kts | 113° |
| 2026-05-01 10:20 | 41.72163 | 12.50759 | 17915 ft | 367 kts | 131° |
| 2026-05-01 10:20 | 41.70104 | 12.52789 | 17176 ft | 370 kts | 155° |
| 2026-05-01 10:21 | 41.67623 | 12.53584 | 16461 ft | 368 kts | 181° |
| 2026-05-01 10:21 | 41.62766 | 12.51924 | 15105 ft | 359 kts | 201° |
| 2026-05-01 10:21 | 41.60366 | 12.50996 | 14458 ft | 358 kts | 197° |
| 2026-05-01 10:22 | 41.55525 | 12.50337 | 13053 ft | 356 kts | 163° |
| 2026-05-01 10:22 | 41.52129 | 12.54535 | 11687 ft | 334 kts | 103° |
| 2026-05-01 10:23 | 41.52004 | 12.57524 | 11065 ft | 319 kts | 72° |
| 2026-05-01 10:23 | 41.54649 | 12.61675 | 9928 ft | 295 kts | 19° |
| 2026-05-01 10:23 | 41.56535 | 12.62239 | 9338 ft | 290 kts | 8° |
| 2026-05-01 10:24 | 41.58107 | 12.62604 | 8840 ft | 289 kts | 9° |
| 2026-05-01 10:24 | 41.61229 | 12.63256 | 7885 ft | 287 kts | 9° |
| 2026-05-01 10:25 | 41.65158 | 12.64122 | 6709 ft | 285 kts | 3° |
| 2026-05-01 10:25 | 41.68409 | 12.61983 | 6282 ft | 262 kts | 308° |
| 2026-05-01 10:26 | 41.69308 | 12.59878 | 5979 ft | 262 kts | 293° |
| 2026-05-01 10:26 | 41.69730 | 12.57506 | 5564 ft | 267 kts | 273° |
| 2026-05-01 10:26 | 41.68455 | 12.52892 | 4702 ft | 272 kts | 231° |
| 2026-05-01 10:27 | 41.66152 | 12.48945 | 3992 ft | 263 kts | 233° |
| 2026-05-01 10:27 | 41.64016 | 12.45210 | 3686 ft | 241 kts | 233° |
| 2026-05-01 10:28 | 41.63014 | 12.43440 | 3599 ft | 233 kts | 234° |
| 2026-05-01 10:28 | 41.61316 | 12.39968 | 3505 ft | 222 kts | 257° |
| 2026-05-01 10:28 | 41.61300 | 12.37939 | 3485 ft | 218 kts | 287° |
| 2026-05-01 10:29 | 41.63268 | 12.35107 | 3363 ft | 207 kts | 338° |
| 2026-05-01 10:29 | 41.64593 | 12.34503 | 3210 ft | 197 kts | 344° |
| 2026-05-01 10:30 | 41.67175 | 12.33451 | 2826 ft | 192 kts | 343° |
| 2026-05-01 10:30 | 41.69243 | 12.32587 | 2473 ft | 183 kts | 343° |
| 2026-05-01 10:31 | 41.71457 | 12.31659 | 2111 ft | 149 kts | 342° |
| 2026-05-01 10:31 | 41.73653 | 12.30740 | 1578 ft | 143 kts | 341° |
| 2026-05-01 10:32 | 41.75168 | 12.30103 | 1326 ft | 143 kts | 345° |
| 2026-05-01 10:32 | 41.76107 | 12.29716 | 1123 ft | 142 kts | 343° |
| 2026-05-01 10:32 | 41.77977 | 12.28938 | 747 ft | 140 kts | 346° |
| 2026-05-01 10:33 | 41.79842 | 12.28133 | 354 ft | 140 kts | 344° |
| 2026-05-01 10:33 | 41.81691 | 12.27368 | 30 ft | 135 kts | 342° |
| 2026-05-01 10:34 | 41.82462 | 12.27045 | 19 ft | 84 kts | 343° |
| 2026-05-01 10:34 | 41.82890 | 12.26867 | 24 ft | 52 kts | 340° |
| 2026-05-01 10:34 | 41.83061 | 12.26741 | 22 ft | 22 kts | 322° |
| 2026-05-01 10:35 | 41.83239 | 12.26457 | 23 ft | 18 kts | 259° |
| 2026-05-01 10:35 | 41.83144 | 12.26429 | 24 ft | 16 kts | 165° |
| 2026-05-01 10:35 | 41.83028 | 12.26480 | 22 ft | 20 kts | 161° |
| 2026-05-01 10:35 | 41.82890 | 12.26542 | 21 ft | 22 kts | 161° |
| 2026-05-01 10:36 | 41.82585 | 12.26670 | 24 ft | 24 kts | 164° |
| 2026-05-01 10:36 | 41.82412 | 12.26741 | 19 ft | 28 kts | 162° |
| 2026-05-01 10:36 | 41.82217 | 12.26822 | 17 ft | 31 kts | 163° |
| 2026-05-01 10:37 | 41.82011 | 12.26907 | 18 ft | 31 kts | 163° |
| 2026-05-01 10:37 | 41.81579 | 12.27090 | 24 ft | 33 kts | 163° |
| 2026-05-01 10:37 | 41.81353 | 12.27183 | 22 ft | 35 kts | 162° |
| 2026-05-01 10:38 | 41.81122 | 12.27281 | 17 ft | 35 kts | 162° |
| 2026-05-01 10:38 | 41.80879 | 12.27345 | 17 ft | 34 kts | 185° |
| 2026-05-01 10:38 | 41.80672 | 12.27265 | 19 ft | 28 kts | 228° |
| 2026-05-01 10:38 | 41.80603 | 12.27031 | 19 ft | 28 kts | 249° |
| 2026-05-01 10:39 | 41.80532 | 12.26783 | 17 ft | 30 kts | 249° |
| 2026-05-01 10:39 | 41.80458 | 12.26517 | 20 ft | 31 kts | 250° |
| 2026-05-01 10:39 | 41.80348 | 12.26374 | 17 ft | 22 kts | 171° |
| 2026-05-01 10:39 | 41.80202 | 12.26401 | 19 ft | 21 kts | 206° |
| 2026-05-01 10:40 | 41.80068 | 12.26314 | 20 ft | 22 kts | 205° |
| 2026-05-01 10:40 | 41.79925 | 12.26226 | 24 ft | 24 kts | 204° |
| 2026-05-01 10:40 | 41.79770 | 12.26134 | 20 ft | 20 kts | 192° |
| 2026-05-01 10:40 | 41.79686 | 12.26163 | 19 ft | 11 kts | 191° |
| 2026-05-01 10:41 | 41.79621 | 12.26115 | 19 ft | 10 kts | 210° |
| 2026-05-01 10:41 | 41.79569 | 12.26076 | 20 ft | 5 kts | 200° |
| 2026-05-01 10:41 | 41.79549 | 12.26089 | 20 ft | 4 kts | 129° |
| 2026-05-01 10:42 | 41.79534 | 12.26131 | 19 ft | 5 kts | 114° |
| 2026-05-01 10:42 | 41.79529 | 12.26147 | 20 ft | 0 kts | 114° |